createdAt,value
2022-10-28T00:00:52.108Z,101194.00
2022-10-28T00:03:19.060Z,101196.00
2022-10-28T00:05:46.191Z,101200.00
2022-10-28T00:08:12.760Z,101201.00
2022-10-28T00:10:39.335Z,101195.00
2022-10-28T00:13:05.893Z,101199.00
2022-10-28T00:15:34.503Z,101204.00
2022-10-28T00:18:01.008Z,101199.00
2022-10-28T00:20:27.559Z,101184.00
2022-10-28T00:22:54.136Z,101188.00
2022-10-28T00:25:24.741Z,101192.00
2022-10-28T00:27:52.692Z,101212.00
2022-10-28T00:30:19.715Z,101206.00
2022-10-28T00:32:46.189Z,101200.00
2022-10-28T00:35:12.672Z,101200.00
2022-10-28T00:37:39.164Z,101187.00
2022-10-28T00:40:05.921Z,101201.00
2022-10-28T00:42:32.962Z,101207.00
2022-10-28T00:45:00.884Z,101196.00
2022-10-28T00:47:38.686Z,101194.00
2022-10-28T00:50:39.753Z,101189.00
2022-10-28T00:53:21.954Z,101192.00
2022-10-28T00:55:48.549Z,101197.00
2022-10-28T00:58:15.691Z,101190.00
2022-10-28T01:00:42.510Z,101196.00
2022-10-28T01:03:09.719Z,101188.00
2022-10-28T01:05:38.809Z,101178.00
2022-10-28T01:08:05.674Z,101184.00
2022-10-28T01:10:55.289Z,101180.00
2022-10-28T01:13:37.228Z,101182.00
2022-10-28T01:16:23.731Z,101165.00
2022-10-28T01:19:02.442Z,101176.00
2022-10-28T01:21:47.034Z,101177.00
2022-10-28T01:24:39.839Z,101172.00
2022-10-28T01:27:25.234Z,101169.00
2022-10-28T01:30:04.897Z,101164.00
2022-10-28T01:32:56.087Z,101161.00
2022-10-28T01:35:52.413Z,101162.00
2022-10-28T01:38:32.383Z,101153.00
2022-10-28T01:41:37.329Z,101163.00
2022-10-28T01:44:06.658Z,101166.00
2022-10-28T01:46:48.266Z,101155.00
2022-10-28T01:49:23.168Z,101157.00
2022-10-28T01:51:53.800Z,101155.00
2022-10-28T01:54:22.760Z,101156.00
2022-10-28T01:56:50.253Z,101147.00
2022-10-28T01:59:20.886Z,101148.00
2022-10-28T02:01:47.544Z,101139.00
2022-10-28T02:04:14.164Z,101144.00
2022-10-28T02:06:43.021Z,101142.00
2022-10-28T02:09:43.679Z,101140.00
2022-10-28T02:12:29.014Z,101142.00
2022-10-28T02:15:01.680Z,101141.00
2022-10-28T02:17:46.708Z,101137.00
2022-10-28T02:20:33.154Z,101134.00
2022-10-28T02:23:11.788Z,101127.00
2022-10-28T02:26:04.307Z,101123.00
2022-10-28T02:28:47.609Z,101123.00
2022-10-28T02:31:33.500Z,101122.00
2022-10-28T02:34:03.772Z,101118.00
2022-10-28T02:36:34.052Z,101127.00
2022-10-28T02:39:00.486Z,101132.00
2022-10-28T02:41:31.532Z,101131.00
2022-10-28T02:44:01.973Z,101132.00
2022-10-28T02:46:31.037Z,101130.00
2022-10-28T02:49:04.837Z,101129.00
2022-10-28T02:51:48.816Z,101137.00
2022-10-28T02:54:17.961Z,101135.00
2022-10-28T02:57:32.813Z,101136.00
2022-10-28T03:00:01.539Z,101129.00
2022-10-28T03:02:28.541Z,101124.00
2022-10-28T03:04:55.011Z,101118.00
2022-10-28T03:07:21.549Z,101120.00
2022-10-28T03:09:47.999Z,101122.00
2022-10-28T03:12:14.507Z,101123.00
2022-10-28T03:14:40.996Z,101118.00
2022-10-28T03:17:07.770Z,101122.00
2022-10-28T03:19:34.387Z,101126.00
2022-10-28T03:22:00.844Z,101125.00
2022-10-28T03:24:27.298Z,101127.00
2022-10-28T03:26:53.768Z,101121.00
2022-10-28T03:29:20.979Z,101125.00
2022-10-28T03:31:47.425Z,101122.00
2022-10-28T03:34:13.970Z,101120.00
2022-10-28T03:36:40.497Z,101124.00
2022-10-28T03:39:06.999Z,101125.00
2022-10-28T03:41:33.522Z,101117.00
2022-10-28T03:43:59.974Z,101120.00
2022-10-28T03:46:26.544Z,101120.00
2022-10-28T03:48:53.126Z,101119.00
2022-10-28T03:51:19.865Z,101117.00
2022-10-28T03:53:46.330Z,101123.00
2022-10-28T03:56:12.983Z,101137.00
2022-10-28T03:58:41.320Z,101130.00
2022-10-28T04:01:08.314Z,101124.00
2022-10-28T04:03:34.932Z,101115.00
2022-10-28T04:06:01.423Z,101131.00
2022-10-28T04:08:27.866Z,101137.00
2022-10-28T04:10:54.329Z,101123.00
2022-10-28T04:13:20.784Z,101121.00
2022-10-28T04:15:47.235Z,101118.00
2022-10-28T04:18:13.676Z,101113.00
2022-10-28T04:20:40.548Z,101117.00
2022-10-28T04:23:07.112Z,101116.00
2022-10-28T04:25:33.571Z,101111.00
2022-10-28T04:28:00.189Z,101107.00
2022-10-28T04:30:26.668Z,101101.00
2022-10-28T04:32:53.189Z,101110.00
2022-10-28T04:35:19.694Z,101105.00
2022-10-28T04:37:46.184Z,101113.00
2022-10-28T04:40:12.717Z,101104.00
2022-10-28T04:42:39.273Z,101117.00
2022-10-28T04:45:06.386Z,101109.00
2022-10-28T04:47:32.836Z,101115.00
2022-10-28T04:49:59.292Z,101110.00
2022-10-28T04:52:25.758Z,101112.00
2022-10-28T04:54:52.200Z,101104.00
2022-10-28T04:57:18.700Z,101089.00
2022-10-28T04:59:46.654Z,101084.00
2022-10-28T05:02:13.139Z,101092.00
2022-10-28T05:04:39.681Z,101088.00
2022-10-28T05:07:06.885Z,101089.00
2022-10-28T05:09:33.298Z,101084.00
2022-10-28T05:11:59.790Z,101082.00
2022-10-28T05:14:26.269Z,101082.00
2022-10-28T05:16:52.705Z,101088.00
2022-10-28T05:19:19.231Z,101086.00
2022-10-28T05:21:45.668Z,101085.00
2022-10-28T05:24:12.216Z,101092.00
2022-10-28T05:26:38.745Z,101090.00
2022-10-28T05:29:05.274Z,101089.00
2022-10-28T05:31:31.768Z,101095.00
2022-10-28T05:33:58.244Z,101092.00
2022-10-28T05:36:24.742Z,101092.00
2022-10-28T05:38:51.189Z,101085.00
2022-10-28T05:41:17.667Z,101078.00
2022-10-28T05:43:44.147Z,101080.00
2022-10-28T05:46:10.817Z,101074.00
2022-10-28T05:48:37.270Z,101102.00
2022-10-28T05:51:03.895Z,101080.00
2022-10-28T05:53:30.344Z,101085.00
2022-10-28T05:55:56.864Z,101089.00
2022-10-28T05:58:23.390Z,101084.00
2022-10-28T06:00:49.843Z,101080.00
2022-10-28T06:03:16.512Z,101072.00
2022-10-28T06:05:44.428Z,101074.00
2022-10-28T06:08:14.046Z,101072.00
2022-10-28T06:10:41.498Z,101063.00
2022-10-28T06:13:07.544Z,101070.00
2022-10-28T06:15:34.050Z,101077.00
2022-10-28T06:18:03.553Z,101076.00
2022-10-28T06:20:30.042Z,101077.00
2022-10-28T06:22:56.620Z,101078.00
2022-10-28T06:25:24.434Z,101069.00
2022-10-28T06:28:05.826Z,101072.00
2022-10-28T06:30:35.972Z,101082.00
2022-10-28T06:33:02.464Z,101087.00
2022-10-28T06:35:28.910Z,101078.00
2022-10-28T06:37:56.210Z,101071.00
2022-10-28T06:40:23.751Z,101076.00
2022-10-28T06:42:58.120Z,101077.00
2022-10-28T06:45:25.577Z,101086.00
2022-10-28T06:47:58.410Z,101081.00
2022-10-28T06:50:25.048Z,101079.00
2022-10-28T06:52:51.589Z,101073.00
2022-10-28T06:55:18.360Z,101074.00
2022-10-28T06:57:44.852Z,101073.00
2022-10-28T07:00:11.919Z,101074.00
2022-10-28T07:02:42.740Z,101074.00
2022-10-28T07:05:11.711Z,101073.00
2022-10-28T07:07:38.294Z,101084.00
2022-10-28T07:10:05.986Z,101092.00
2022-10-28T07:12:32.780Z,101090.00
2022-10-28T07:14:59.338Z,101094.00
2022-10-28T07:17:26.397Z,101085.00
2022-10-28T07:19:52.857Z,101094.00
2022-10-28T07:22:22.418Z,101087.00
2022-10-28T07:24:51.878Z,101083.00
2022-10-28T07:27:18.376Z,101088.00
2022-10-28T07:29:44.868Z,101093.00
2022-10-28T07:32:11.389Z,101093.00
2022-10-28T07:34:37.879Z,101101.00
2022-10-28T07:37:05.961Z,101088.00
2022-10-28T07:39:32.492Z,101087.00
2022-10-28T07:42:00.419Z,101079.00
2022-10-28T07:44:27.032Z,101080.00
2022-10-28T07:46:55.763Z,101078.00
2022-10-28T07:49:24.593Z,101084.00
2022-10-28T07:51:51.490Z,101076.00
2022-10-28T07:54:18.101Z,101070.00
2022-10-28T07:56:44.950Z,101063.00
2022-10-28T07:59:11.459Z,101073.00
2022-10-28T08:01:38.046Z,101058.00
2022-10-28T08:04:04.745Z,101061.00
2022-10-28T08:06:31.453Z,101055.00
2022-10-28T08:08:57.887Z,101057.00
2022-10-28T08:11:24.515Z,101058.00
2022-10-28T08:13:52.127Z,101057.00
2022-10-28T08:16:19.055Z,101061.00
2022-10-28T08:18:48.473Z,101060.00
2022-10-28T08:21:15.363Z,101071.00
2022-10-28T08:23:46.294Z,101068.00
2022-10-28T08:26:14.997Z,101082.00
2022-10-28T08:28:41.769Z,101071.00
2022-10-28T08:31:12.359Z,101079.00
2022-10-28T08:33:46.883Z,101086.00
2022-10-28T08:36:16.009Z,101096.00
2022-10-28T08:38:45.533Z,101095.00
2022-10-28T08:41:31.169Z,101090.00
2022-10-28T08:44:20.832Z,101096.00
2022-10-28T08:47:08.773Z,101093.00
2022-10-28T08:49:39.055Z,101094.00
2022-10-28T08:52:30.081Z,101105.00
2022-10-28T08:55:06.772Z,101107.00
2022-10-28T08:57:34.988Z,101094.00
2022-10-28T09:00:03.461Z,101086.00
2022-10-28T09:02:36.444Z,101075.00
2022-10-28T09:05:15.474Z,101064.00
2022-10-28T09:07:41.999Z,101073.00
2022-10-28T09:10:12.976Z,101073.00
2022-10-28T09:13:04.637Z,101077.00
2022-10-28T09:15:46.351Z,101074.00
2022-10-28T09:18:19.120Z,101086.00
2022-10-28T09:20:53.969Z,101090.00
2022-10-28T09:23:27.465Z,101087.00
2022-10-28T09:26:17.585Z,101086.00
2022-10-28T09:28:57.195Z,101087.00
2022-10-28T09:31:35.664Z,101078.00
2022-10-28T09:34:05.714Z,101070.00
2022-10-28T09:36:35.062Z,101069.00
2022-10-28T09:39:01.953Z,101070.00
2022-10-28T09:41:34.261Z,101064.00
2022-10-28T09:44:10.782Z,101058.00
2022-10-28T09:46:37.923Z,101063.00
2022-10-28T09:49:06.586Z,101064.00
2022-10-28T09:51:57.946Z,101057.00
2022-10-28T09:54:33.419Z,101055.00
2022-10-28T09:56:59.998Z,101036.00
2022-10-28T09:59:26.514Z,101046.00
2022-10-28T10:01:53.182Z,101046.00
2022-10-28T10:04:24.608Z,101057.00
2022-10-28T10:07:19.441Z,101061.00
2022-10-28T10:09:45.957Z,101055.00
2022-10-28T10:12:13.368Z,101046.00
2022-10-28T10:14:43.661Z,101046.00
2022-10-28T10:17:14.084Z,101048.00
2022-10-28T10:20:01.433Z,101040.00
2022-10-28T10:22:36.032Z,101038.00
2022-10-28T10:25:04.366Z,101036.00
2022-10-28T10:27:31.517Z,101040.00
2022-10-28T10:29:58.837Z,101041.00
2022-10-28T10:32:28.237Z,101037.00
2022-10-28T10:35:02.063Z,101034.00
2022-10-28T10:37:30.850Z,101031.00
2022-10-28T10:40:00.304Z,101030.00
2022-10-28T10:42:27.896Z,101027.00
2022-10-28T10:45:25.269Z,101027.00
2022-10-28T10:48:07.075Z,101031.00
2022-10-28T10:50:33.719Z,101025.00
2022-10-28T10:53:01.390Z,101017.00
2022-10-28T10:55:37.057Z,101013.00
2022-10-28T10:58:05.325Z,101013.00
2022-10-28T11:00:36.941Z,101002.00
2022-10-28T11:03:05.904Z,101017.00
2022-10-28T11:05:38.069Z,101010.00
2022-10-28T11:08:06.599Z,100993.00
2022-10-28T11:10:35.032Z,100996.00
2022-10-28T11:13:25.410Z,100990.00
2022-10-28T11:16:06.226Z,100988.00
2022-10-28T11:18:44.649Z,100981.00
2022-10-28T11:24:07.032Z,100982.00
2022-10-28T11:26:39.517Z,100978.00
2022-10-28T11:29:14.142Z,100958.00
2022-10-28T11:32:05.787Z,100987.00
2022-10-28T11:34:44.055Z,100972.00
2022-10-28T11:37:36.298Z,100977.00
2022-10-28T11:40:10.736Z,100973.00
2022-10-28T11:43:01.632Z,100971.00
2022-10-28T11:45:45.844Z,100971.00
2022-10-28T11:48:28.347Z,100970.00
2022-10-28T11:51:15.717Z,100976.00
2022-10-28T11:54:05.149Z,100967.00
2022-10-28T11:56:45.849Z,100965.00
2022-10-28T11:59:36.484Z,100975.00
2022-10-28T12:02:28.500Z,100971.00
2022-10-28T12:05:09.302Z,100973.00
2022-10-28T12:07:58.815Z,100956.00
2022-10-28T12:10:50.688Z,100951.00
2022-10-28T12:13:54.346Z,100955.00
2022-10-28T12:16:20.826Z,100961.00
2022-10-28T12:19:09.080Z,100957.00
2022-10-28T12:21:38.053Z,100958.00
2022-10-28T12:24:07.046Z,100951.00
2022-10-28T12:26:48.485Z,100951.00
2022-10-28T12:29:20.728Z,100952.00
2022-10-28T12:31:55.770Z,100951.00
2022-10-28T12:34:31.956Z,100939.00
2022-10-28T12:37:08.872Z,100941.00
2022-10-28T12:39:41.214Z,100944.00
2022-10-28T12:42:21.690Z,100945.00
2022-10-28T12:44:52.842Z,100944.00
2022-10-28T12:47:39.081Z,100946.00
2022-10-28T12:50:08.593Z,100946.00
2022-10-28T12:52:59.114Z,100952.00
2022-10-28T12:55:42.248Z,100948.00
2022-10-28T12:58:27.333Z,100940.00
2022-10-28T13:00:57.219Z,100941.00
2022-10-28T13:03:23.756Z,100942.00
2022-10-28T13:05:55.898Z,100940.00
2022-10-28T13:08:53.050Z,100936.00
2022-10-28T13:11:19.622Z,100930.00
2022-10-28T13:14:06.375Z,100920.00
2022-10-28T13:16:53.686Z,100914.00
2022-10-28T13:19:25.668Z,100928.00
2022-10-28T13:22:12.064Z,100930.00
2022-10-28T13:24:46.186Z,100928.00
2022-10-28T13:27:13.733Z,100929.00
2022-10-28T13:29:42.203Z,100922.00
2022-10-28T13:32:35.789Z,100922.00
2022-10-28T13:35:25.024Z,100916.00
2022-10-28T13:37:53.173Z,100916.00
2022-10-28T13:40:32.174Z,100911.00
2022-10-28T13:43:00.123Z,100911.00
2022-10-28T13:45:48.483Z,100902.00
2022-10-28T13:48:30.532Z,100906.00
2022-10-28T13:51:09.549Z,100910.00
2022-10-28T13:53:42.182Z,100908.00
2022-10-28T13:56:26.846Z,100897.00
2022-10-28T13:59:21.601Z,100902.00
2022-10-28T14:02:07.489Z,100907.00
2022-10-28T14:04:54.608Z,100904.00
2022-10-28T14:07:23.665Z,100905.00
2022-10-28T14:09:53.081Z,100903.00
2022-10-28T14:12:25.969Z,100907.00
2022-10-28T14:15:02.954Z,100899.00
2022-10-28T14:17:38.860Z,100899.00
2022-10-28T14:20:18.625Z,100901.00
2022-10-28T14:22:48.036Z,100907.00
2022-10-28T14:25:59.492Z,100901.00
2022-10-28T14:28:29.242Z,100893.00
2022-10-28T14:31:07.793Z,100895.00
2022-10-28T14:33:46.502Z,100899.00
2022-10-28T14:36:21.940Z,100896.00
2022-10-28T14:39:10.511Z,100892.00
2022-10-28T14:41:55.982Z,100893.00
2022-10-28T14:44:47.983Z,100893.00
2022-10-28T14:47:23.543Z,100890.00
2022-10-28T14:50:02.083Z,100886.00
2022-10-28T14:52:30.292Z,100888.00
2022-10-28T14:55:02.779Z,100882.00
2022-10-28T14:57:33.869Z,100890.00
2022-10-28T15:00:05.997Z,100886.00
2022-10-28T15:02:37.895Z,100881.00
2022-10-28T15:05:15.113Z,100885.00
2022-10-28T15:07:41.834Z,100884.00
2022-10-28T15:10:14.985Z,100889.00
2022-10-28T15:12:43.791Z,100874.00
2022-10-28T15:15:17.978Z,100881.00
2022-10-28T15:17:44.484Z,100876.00
2022-10-28T15:20:23.834Z,100873.00
2022-10-28T15:22:50.786Z,100870.00
2022-10-28T15:25:20.344Z,100873.00
2022-10-28T15:27:50.387Z,100868.00
2022-10-28T15:30:24.663Z,100872.00
2022-10-28T15:32:53.041Z,100872.00
2022-10-28T15:35:35.203Z,100862.00
2022-10-28T15:38:02.941Z,100871.00
2022-10-28T15:40:35.993Z,100878.00
2022-10-28T15:43:03.496Z,100872.00
2022-10-28T15:45:32.154Z,100874.00
2022-10-28T15:48:00.102Z,100867.00
2022-10-28T15:50:30.219Z,100862.00
2022-10-28T15:53:11.919Z,100868.00
2022-10-28T15:56:07.005Z,100872.00
2022-10-28T15:58:36.210Z,100872.00
2022-10-28T16:01:03.223Z,100868.00
2022-10-28T16:03:47.434Z,100873.00
2022-10-28T16:06:45.076Z,100864.00
2022-10-28T16:10:19.138Z,100865.00
2022-10-28T16:12:46.033Z,100865.00
2022-10-28T16:15:23.169Z,100867.00
2022-10-28T16:17:52.633Z,100862.00
2022-10-28T16:20:27.715Z,100859.00
2022-10-28T16:22:54.369Z,100851.00
2022-10-28T16:25:22.298Z,100868.00
2022-10-28T16:27:49.608Z,100855.00
2022-10-28T16:30:16.337Z,100852.00
2022-10-28T16:32:47.698Z,100851.00
2022-10-28T16:35:16.465Z,100851.00
2022-10-28T16:37:45.250Z,100849.00
2022-10-28T16:40:37.639Z,100860.00
2022-10-28T16:43:01.655Z,100858.00
2022-10-28T16:45:28.177Z,100865.00
2022-10-28T16:47:55.006Z,100860.00
2022-10-28T16:50:21.922Z,100859.00
2022-10-28T16:52:48.379Z,100862.00
2022-10-28T16:55:16.272Z,100857.00
2022-10-28T16:57:42.771Z,100857.00
2022-10-28T17:00:12.729Z,100854.00
2022-10-28T17:02:39.400Z,100852.00
2022-10-28T17:05:07.360Z,100857.00
2022-10-28T17:07:33.881Z,100857.00
2022-10-28T17:10:00.389Z,100859.00
2022-10-28T17:12:27.767Z,100864.00
2022-10-28T17:14:54.277Z,100857.00
2022-10-28T17:17:20.951Z,100857.00
2022-10-28T17:19:47.432Z,100847.00
2022-10-28T17:22:14.265Z,100854.00
2022-10-28T17:24:40.740Z,100850.00
2022-10-28T17:27:07.748Z,100850.00
2022-10-28T17:29:34.228Z,100851.00
2022-10-28T17:32:00.971Z,100867.00
2022-10-28T17:34:27.424Z,100868.00
2022-10-28T17:36:54.021Z,100866.00
2022-10-28T17:39:25.628Z,100863.00
2022-10-28T17:41:52.902Z,100862.00
2022-10-28T17:44:19.408Z,100861.00
2022-10-28T17:46:48.270Z,100870.00
2022-10-28T17:49:15.578Z,100866.00
2022-10-28T17:51:44.748Z,100868.00
2022-10-28T17:54:14.502Z,100867.00
2022-10-28T17:56:50.659Z,100865.00
2022-10-28T17:59:18.857Z,100864.00
2022-10-28T18:01:48.628Z,100851.00
2022-10-28T18:04:15.378Z,100858.00
2022-10-28T18:06:41.985Z,100860.00
2022-10-28T18:09:14.535Z,100857.00
2022-10-28T18:11:41.149Z,100866.00
2022-10-28T18:14:07.693Z,100870.00
2022-10-28T18:16:36.527Z,100860.00
2022-10-28T18:19:05.313Z,100870.00
2022-10-28T18:21:32.052Z,100865.00
2022-10-28T18:24:04.351Z,100866.00
2022-10-28T18:26:35.294Z,100857.00
2022-10-28T18:29:05.353Z,100862.00
2022-10-28T18:31:33.134Z,100863.00
2022-10-28T18:34:03.298Z,100858.00
2022-10-28T18:36:34.050Z,100860.00
2022-10-28T18:39:02.923Z,100862.00
2022-10-28T18:41:30.513Z,100858.00
2022-10-28T18:43:59.010Z,100861.00
2022-10-28T18:46:26.981Z,100852.00
2022-10-28T18:48:53.803Z,100853.00
2022-10-28T18:51:20.566Z,100851.00
2022-10-28T18:53:48.399Z,100856.00
2022-10-28T18:56:20.022Z,100852.00
2022-10-28T18:58:51.680Z,100856.00
2022-10-28T19:01:21.322Z,100853.00
2022-10-28T19:03:51.952Z,100858.00
2022-10-28T19:06:18.794Z,100858.00
2022-10-28T19:08:45.384Z,100846.00
2022-10-28T19:11:13.401Z,100855.00
2022-10-28T19:13:41.305Z,100858.00
2022-10-28T19:16:08.512Z,100846.00
2022-10-28T19:18:36.646Z,100850.00
2022-10-28T19:21:13.261Z,100854.00
2022-10-28T19:23:40.487Z,100856.00
2022-10-28T19:26:07.905Z,100857.00
2022-10-28T19:28:44.923Z,100850.00
2022-10-28T19:31:17.407Z,100849.00
2022-10-28T19:33:45.298Z,100852.00
2022-10-28T19:36:18.886Z,100861.00
2022-10-28T19:38:47.008Z,100857.00
2022-10-28T19:41:16.053Z,100860.00
2022-10-28T19:43:42.611Z,100861.00
2022-10-28T19:46:14.345Z,100860.00
2022-10-28T19:48:46.195Z,100863.00
2022-10-28T19:51:18.374Z,100864.00
2022-10-28T19:53:55.968Z,100865.00
2022-10-28T19:56:22.830Z,100870.00
2022-10-28T19:58:54.656Z,100874.00
2022-10-28T20:01:22.575Z,100873.00
2022-10-28T20:03:53.003Z,100873.00
2022-10-28T20:06:21.846Z,100883.00
2022-10-28T20:08:49.265Z,100879.00
2022-10-28T20:11:21.370Z,100879.00
2022-10-28T20:13:51.775Z,100881.00
2022-10-28T20:16:18.348Z,100884.00
2022-10-28T20:18:44.984Z,100886.00
2022-10-28T20:21:13.932Z,100894.00
2022-10-28T20:23:45.099Z,100892.00
2022-10-28T20:26:14.494Z,100892.00
2022-10-28T20:28:41.091Z,100880.00
2022-10-28T20:31:12.217Z,100885.00
2022-10-28T20:33:40.584Z,100890.00
2022-10-28T20:36:21.745Z,100883.00
2022-10-28T20:38:48.234Z,100893.00
2022-10-28T20:41:16.184Z,100897.00
2022-10-28T20:43:42.635Z,100900.00
2022-10-28T20:46:09.185Z,100898.00
2022-10-28T20:48:35.852Z,100902.00
2022-10-28T20:51:02.634Z,100897.00
2022-10-28T20:53:33.975Z,100892.00
2022-10-28T20:56:01.708Z,100893.00
2022-10-28T20:58:30.011Z,100903.00
2022-10-28T21:01:05.536Z,100898.00
2022-10-28T21:03:32.458Z,100890.00
2022-10-28T21:05:59.198Z,100898.00
2022-10-28T21:08:25.660Z,100899.00
2022-10-28T21:10:52.084Z,100897.00
2022-10-28T21:13:18.563Z,100894.00
2022-10-28T21:15:50.734Z,100909.00
2022-10-28T21:18:19.552Z,100898.00
2022-10-28T21:20:46.073Z,100904.00
2022-10-28T21:23:13.026Z,100906.00
2022-10-28T21:25:39.972Z,100908.00
2022-10-28T21:28:06.557Z,100909.00
2022-10-28T21:30:33.004Z,100902.00
2022-10-28T21:32:59.456Z,100916.00
2022-10-28T21:35:26.757Z,100889.00
2022-10-28T21:37:54.378Z,100898.00
2022-10-28T21:40:21.122Z,100899.00
2022-10-28T21:42:50.625Z,100902.00
2022-10-28T21:45:17.748Z,100894.00
2022-10-28T21:47:44.388Z,100894.00
2022-10-28T21:50:10.846Z,100890.00
2022-10-28T21:52:37.302Z,100894.00
2022-10-28T21:55:09.928Z,100896.00
2022-10-28T21:57:47.348Z,100893.00
2022-10-28T22:00:14.035Z,100886.00
2022-10-28T22:02:41.245Z,100896.00
2022-10-28T22:05:07.923Z,100902.00
2022-10-28T22:07:34.443Z,100895.00
2022-10-28T22:10:00.894Z,100895.00
2022-10-28T22:12:29.491Z,100899.00
2022-10-28T22:14:55.978Z,100891.00
2022-10-28T22:17:22.438Z,100893.00
2022-10-28T22:19:48.914Z,100897.00
2022-10-28T22:22:15.365Z,100902.00
2022-10-28T22:24:41.817Z,100903.00
2022-10-28T22:27:08.298Z,100912.00
2022-10-28T22:29:34.732Z,100906.00
2022-10-28T22:32:01.215Z,100908.00
2022-10-28T22:34:27.678Z,100910.00
2022-10-28T22:36:54.212Z,100904.00
2022-10-28T22:39:20.675Z,100908.00
2022-10-28T22:41:47.123Z,100914.00
2022-10-28T22:44:13.559Z,100921.00
2022-10-28T22:46:41.047Z,100920.00
2022-10-28T22:49:07.508Z,100915.00
2022-10-28T22:51:34.025Z,100914.00
2022-10-28T22:54:00.513Z,100918.00
2022-10-28T22:56:27.579Z,100899.00
2022-10-28T22:58:56.015Z,100911.00
2022-10-28T23:01:23.330Z,100920.00
2022-10-28T23:03:51.233Z,100906.00
2022-10-28T23:06:19.545Z,100912.00
2022-10-28T23:08:46.910Z,100930.00
2022-10-28T23:11:14.626Z,100939.00
2022-10-28T23:13:41.105Z,100946.00
2022-10-28T23:16:13.659Z,100948.00
2022-10-28T23:18:40.468Z,100944.00
2022-10-28T23:21:10.324Z,100950.00
2022-10-28T23:23:36.793Z,100953.00
2022-10-28T23:26:03.533Z,100963.00
2022-10-28T23:28:30.099Z,100957.00
2022-10-28T23:31:01.430Z,100959.00
2022-10-28T23:33:29.885Z,100961.00
2022-10-28T23:35:57.194Z,100948.00
2022-10-28T23:38:24.158Z,100944.00
2022-10-28T23:40:58.041Z,100942.00
2022-10-28T23:43:24.510Z,100944.00
2022-10-28T23:45:51.206Z,100952.00
2022-10-28T23:48:17.750Z,100951.00
2022-10-28T23:50:44.475Z,100952.00
2022-10-28T23:53:10.931Z,100943.00
2022-10-28T23:55:37.402Z,100952.00
2022-10-28T23:58:03.889Z,100950.00
